createdAt,value
2017-05-03T00:02:06.377Z,10.18
2017-05-03T00:04:32.243Z,10.82
2017-05-03T00:06:58.855Z,8.62
2017-05-03T00:09:24.720Z,9.52
2017-05-03T00:11:50.680Z,9.70
2017-05-03T00:14:16.533Z,7.18
2017-05-03T00:16:43.184Z,8.08
2017-05-03T00:19:09.142Z,7.42
2017-05-03T00:21:35.014Z,7.72
2017-05-03T00:24:01.699Z,7.54
2017-05-03T00:26:27.580Z,7.76
2017-05-03T00:28:53.470Z,8.82
2017-05-03T00:31:19.324Z,8.58
2017-05-03T00:33:45.209Z,7.76
2017-05-03T00:36:11.205Z,8.42
2017-05-03T00:38:37.100Z,9.16
2017-05-03T00:41:02.967Z,8.30
2017-05-03T00:43:28.828Z,9.82
2017-05-03T00:45:54.705Z,11.20
2017-05-03T00:48:20.648Z,8.40
2017-05-03T00:50:46.533Z,8.10
2017-05-03T00:53:12.397Z,9.40
2017-05-03T00:55:38.260Z,10.86
2017-05-03T00:58:04.147Z,8.28
2017-05-03T01:00:30.273Z,8.50
2017-05-03T01:02:56.185Z,9.10
2017-05-03T01:05:22.048Z,9.34
2017-05-03T01:07:47.905Z,9.60
2017-05-03T01:10:13.804Z,8.54
2017-05-03T01:12:39.756Z,11.02
2017-05-03T01:15:05.623Z,9.06
2017-05-03T01:17:31.497Z,8.38
2017-05-03T01:19:57.368Z,8.82
2017-05-03T01:22:23.261Z,8.86
2017-05-03T01:24:49.259Z,8.76
2017-05-03T01:27:15.160Z,9.30
2017-05-03T01:29:41.756Z,8.44
2017-05-03T01:32:07.709Z,7.86
2017-05-03T01:34:34.322Z,8.84
2017-05-03T01:37:00.198Z,8.70
2017-05-03T01:39:26.063Z,8.24
2017-05-03T01:41:51.936Z,7.80
2017-05-03T01:44:17.892Z,7.78
2017-05-03T01:46:43.743Z,8.34
2017-05-03T01:49:10.369Z,7.44
2017-05-03T01:51:36.348Z,6.66
2017-05-03T01:54:02.215Z,8.14
2017-05-03T01:56:28.957Z,9.12
2017-05-03T01:58:55.566Z,8.06
2017-05-03T02:01:21.435Z,8.46
2017-05-03T02:03:47.368Z,9.00
2017-05-03T02:06:13.231Z,8.26
2017-05-03T02:08:39.183Z,7.24
2017-05-03T02:11:05.779Z,7.06
2017-05-03T02:13:31.643Z,8.94
2017-05-03T02:15:57.518Z,7.76
2017-05-03T02:18:23.940Z,8.32
2017-05-03T02:20:49.885Z,7.00
2017-05-03T02:23:15.757Z,7.52
2017-05-03T02:25:41.631Z,8.40
2017-05-03T02:28:07.591Z,8.04
2017-05-03T02:30:33.474Z,9.08
2017-05-03T02:33:00.082Z,9.28
2017-05-03T02:35:25.935Z,7.92
2017-05-03T02:37:52.557Z,9.16
2017-05-03T02:40:18.516Z,9.98
2017-05-03T02:42:44.373Z,8.86
2017-05-03T02:45:10.243Z,9.80
2017-05-03T02:47:36.109Z,9.70
2017-05-03T02:50:01.979Z,11.94
2017-05-03T02:52:27.856Z,10.00
2017-05-03T02:54:53.723Z,9.76
2017-05-03T02:57:19.587Z,9.60
2017-05-03T02:59:45.459Z,10.74
2017-05-03T03:02:11.415Z,9.76
2017-05-03T03:04:37.287Z,10.92
2017-05-03T03:07:03.900Z,11.34
2017-05-03T03:09:29.762Z,10.30
2017-05-03T03:11:55.620Z,10.26
2017-05-03T03:14:21.516Z,11.66
2017-05-03T03:16:47.475Z,10.66
2017-05-03T03:19:13.402Z,10.96
2017-05-03T03:21:39.270Z,10.20
2017-05-03T03:24:05.127Z,10.06
2017-05-03T03:26:31.001Z,11.50
2017-05-03T03:28:56.951Z,10.44
2017-05-03T03:31:22.823Z,10.88
2017-05-03T03:33:48.696Z,11.02
2017-05-03T03:36:14.601Z,10.42
2017-05-03T03:38:40.500Z,11.52
2017-05-03T03:41:06.452Z,13.30
2017-05-03T03:43:32.328Z,12.64
2017-05-03T03:45:58.181Z,11.90
2017-05-03T03:48:24.064Z,9.80
2017-05-03T03:50:49.927Z,9.14
2017-05-03T03:53:15.881Z,9.70
2017-05-03T03:55:42.489Z,8.54
2017-05-03T03:58:08.361Z,8.64
2017-05-03T04:00:34.219Z,9.30
2017-05-03T04:03:00.089Z,9.74
2017-05-03T04:05:26.792Z,9.32
2017-05-03T04:07:52.668Z,8.04
2017-05-03T04:10:18.531Z,10.38
2017-05-03T04:12:44.403Z,8.78
2017-05-03T04:15:10.283Z,8.94
2017-05-03T04:17:36.225Z,10.38
2017-05-03T04:20:02.140Z,8.88
2017-05-03T04:22:28.760Z,8.84
2017-05-03T04:24:55.363Z,10.14
2017-05-03T04:27:21.221Z,9.12
2017-05-03T04:29:47.914Z,10.50
2017-05-03T04:32:13.775Z,10.64
2017-05-03T04:34:40.377Z,11.58
2017-05-03T04:37:06.245Z,9.94
2017-05-03T04:39:32.855Z,9.88
2017-05-03T04:41:58.821Z,8.26
2017-05-03T04:44:24.693Z,8.62
2017-05-03T04:46:50.559Z,8.32
2017-05-03T04:49:16.439Z,8.64
2017-05-03T04:51:42.303Z,8.84
2017-05-03T04:54:08.268Z,10.32
2017-05-03T04:56:34.131Z,8.40
2017-05-03T04:59:00.007Z,9.06
2017-05-03T05:01:25.980Z,9.58
2017-05-03T05:03:51.964Z,8.78
2017-05-03T05:06:18.623Z,9.06
2017-05-03T05:08:45.312Z,9.08
2017-05-03T05:11:11.270Z,8.90
2017-05-03T05:13:37.367Z,10.64
2017-05-03T05:16:03.362Z,10.52
2017-05-03T05:18:29.256Z,11.58
2017-05-03T05:20:55.328Z,10.42
2017-05-03T05:23:21.571Z,11.30
2017-05-03T05:25:47.504Z,10.62
2017-05-03T05:28:14.200Z,11.86
2017-05-03T05:30:40.059Z,11.26
2017-05-03T05:33:06.752Z,11.20
2017-05-03T05:35:32.616Z,9.82
2017-05-03T05:37:59.314Z,9.88
2017-05-03T05:40:25.190Z,9.14
2017-05-03T05:42:51.050Z,9.72
2017-05-03T05:45:16.927Z,9.32
2017-05-03T05:47:42.786Z,10.84
2017-05-03T05:50:08.750Z,10.64
2017-05-03T05:52:35.441Z,10.36
2017-05-03T05:55:01.381Z,8.42
2017-05-03T05:57:27.258Z,9.54
2017-05-03T05:59:53.128Z,9.12
2017-05-03T06:02:19.011Z,8.28
2017-05-03T06:04:44.920Z,10.02
2017-05-03T06:07:10.879Z,9.10
2017-05-03T06:09:36.756Z,9.40
2017-05-03T06:12:02.629Z,9.12
2017-05-03T06:14:28.576Z,7.38
2017-05-03T06:16:55.268Z,7.86
2017-05-03T06:19:21.214Z,7.64
2017-05-03T06:21:47.078Z,10.12
2017-05-03T06:24:12.956Z,7.10
2017-05-03T06:26:39.556Z,7.18
2017-05-03T06:29:05.442Z,7.12
2017-05-03T06:31:31.388Z,6.94
2017-05-03T06:33:57.259Z,8.48
2017-05-03T06:36:23.927Z,8.46
2017-05-03T06:38:49.789Z,6.78
2017-05-03T06:41:15.684Z,8.48
2017-05-03T06:43:41.598Z,8.04
2017-05-03T06:46:07.488Z,5.86
2017-05-03T06:48:33.511Z,6.74
2017-05-03T06:50:59.501Z,6.86
2017-05-03T06:53:26.236Z,7.66
2017-05-03T06:55:52.382Z,7.00
2017-05-03T06:58:18.227Z,7.24
2017-05-03T07:00:44.108Z,9.00
2017-05-03T07:03:10.087Z,8.66
2017-05-03T07:05:35.947Z,9.66
2017-05-03T07:08:01.848Z,7.34
2017-05-03T07:10:27.708Z,7.24
2017-05-03T07:12:53.573Z,7.26
2017-05-03T07:15:19.529Z,6.92
2017-05-03T07:17:46.212Z,7.72
2017-05-03T07:20:12.075Z,7.06
2017-05-03T07:22:38.025Z,9.40
2017-05-03T07:25:03.889Z,8.58
2017-05-03T07:27:29.839Z,7.38
2017-05-03T07:29:56.467Z,8.40
2017-05-03T07:32:22.335Z,7.04
2017-05-03T07:34:48.196Z,7.04
2017-05-03T07:37:14.067Z,8.18
2017-05-03T07:39:40.041Z,7.28
2017-05-03T07:42:05.903Z,9.18
2017-05-03T07:44:31.783Z,7.64
2017-05-03T07:46:57.650Z,10.32
2017-05-03T07:49:23.524Z,8.46
2017-05-03T07:51:49.396Z,9.84
2017-05-03T07:54:15.283Z,7.42
2017-05-03T07:56:42.003Z,7.54
2017-05-03T07:59:08.640Z,8.92
2017-05-03T08:01:34.507Z,7.98
2017-05-03T08:04:00.375Z,7.96
2017-05-03T08:06:26.238Z,8.66
2017-05-03T08:08:52.227Z,8.26
2017-05-03T08:11:18.852Z,10.22
2017-05-03T08:13:44.721Z,8.02
2017-05-03T08:16:10.595Z,8.70
2017-05-03T08:18:36.453Z,8.54
2017-05-03T08:21:02.412Z,7.02
2017-05-03T08:23:28.280Z,9.26
2017-05-03T08:25:54.156Z,8.22
2017-05-03T08:28:20.016Z,7.84
2017-05-03T08:30:46.619Z,9.42
2017-05-03T08:33:12.503Z,7.82
2017-05-03T08:35:38.371Z,8.04
2017-05-03T08:38:04.976Z,9.34
2017-05-03T08:40:30.939Z,6.60
2017-05-03T08:42:57.545Z,7.80
2017-05-03T08:45:23.433Z,7.66
2017-05-03T08:47:49.296Z,8.50
2017-05-03T08:50:15.163Z,8.16
2017-05-03T08:52:41.040Z,10.00
2017-05-03T08:55:07.674Z,10.18
2017-05-03T08:57:33.575Z,8.66
2017-05-03T08:59:59.429Z,8.62
2017-05-03T09:02:26.048Z,10.54
2017-05-03T09:04:51.996Z,9.28
2017-05-03T09:07:17.950Z,8.34
2017-05-03T09:09:43.822Z,9.34
2017-05-03T09:12:10.448Z,8.94
2017-05-03T09:14:36.311Z,8.82
2017-05-03T09:17:02.222Z,10.06
2017-05-03T09:19:28.199Z,12.26
2017-05-03T09:21:54.818Z,8.88
2017-05-03T09:24:20.776Z,8.92
2017-05-03T09:26:47.388Z,8.90
2017-05-03T09:29:13.290Z,8.42
2017-05-03T09:31:39.153Z,10.04
2017-05-03T09:34:05.766Z,8.88
2017-05-03T09:36:31.724Z,9.68
2017-05-03T09:38:57.605Z,11.08
2017-05-03T09:41:23.490Z,9.14
2017-05-03T09:43:49.389Z,8.42
2017-05-03T09:46:15.283Z,9.24
2017-05-03T09:48:41.984Z,10.48
2017-05-03T09:51:07.855Z,11.28
2017-05-03T09:53:33.743Z,9.32
2017-05-03T09:55:59.866Z,11.36
2017-05-03T09:58:25.814Z,10.74
2017-05-03T10:00:52.547Z,8.22
2017-05-03T10:03:19.159Z,11.18
2017-05-03T10:05:45.171Z,10.86
2017-05-03T10:08:11.245Z,12.02
2017-05-03T10:10:54.660Z,13.02
2017-05-03T10:13:21.263Z,12.52
2017-05-03T10:15:47.343Z,14.44
2017-05-03T10:18:13.315Z,14.32
2017-05-03T10:20:39.337Z,13.90
2017-05-03T10:23:05.398Z,14.00
2017-05-03T10:25:31.500Z,13.22
2017-05-03T10:27:57.663Z,12.22
2017-05-03T10:30:23.954Z,10.80
2017-05-03T10:32:50.760Z,11.94
2017-05-03T10:35:16.698Z,11.32
2017-05-03T10:37:42.575Z,11.72
2017-05-03T10:40:08.548Z,11.70
2017-05-03T10:42:34.621Z,11.84
2017-05-03T10:45:00.522Z,11.58
2017-05-03T10:47:26.460Z,10.64
2017-05-03T10:49:52.330Z,12.86
2017-05-03T10:52:18.204Z,10.42
2017-05-03T10:54:44.078Z,11.70
2017-05-03T10:57:10.681Z,10.92
2017-05-03T10:59:36.627Z,10.08
2017-05-03T11:02:03.243Z,9.64
2017-05-03T11:04:29.204Z,10.48
2017-05-03T11:06:55.819Z,11.16
2017-05-03T11:09:21.692Z,10.24
2017-05-03T11:11:47.560Z,10.90
2017-05-03T11:14:14.179Z,10.32
2017-05-03T11:16:40.057Z,9.30
2017-05-03T11:19:05.936Z,11.36
2017-05-03T11:21:32.641Z,10.56
2017-05-03T11:23:58.583Z,12.50
2017-05-03T11:26:24.512Z,11.66
2017-05-03T11:28:51.132Z,11.12
2017-05-03T11:31:17.001Z,10.92
2017-05-03T11:33:42.963Z,11.92
2017-05-03T11:36:08.852Z,11.46
2017-05-03T11:38:34.732Z,10.08
2017-05-03T11:41:01.355Z,9.38
2017-05-03T11:43:27.211Z,11.44
2017-05-03T11:45:53.162Z,12.00
2017-05-03T11:48:19.027Z,12.52
2017-05-03T11:50:45.661Z,12.36
2017-05-03T11:53:11.548Z,13.66
2017-05-03T11:55:37.469Z,12.98
2017-05-03T11:58:03.406Z,12.58
2017-05-03T12:00:29.303Z,12.56
2017-05-03T12:02:55.172Z,11.40
2017-05-03T12:05:21.786Z,11.20
2017-05-03T12:07:47.664Z,10.44
2017-05-03T12:10:13.635Z,10.04
2017-05-03T12:12:40.292Z,12.96
2017-05-03T12:15:06.895Z,12.08
2017-05-03T12:17:32.768Z,12.54
2017-05-03T12:19:58.719Z,14.04
2017-05-03T12:22:24.586Z,12.52
2017-05-03T12:24:51.283Z,12.52
2017-05-03T12:27:17.144Z,11.84
2017-05-03T12:29:43.767Z,12.74
2017-05-03T12:32:10.447Z,14.22
2017-05-03T12:34:36.320Z,12.72
2017-05-03T12:37:03.076Z,14.84
2017-05-03T12:39:29.051Z,11.88
2017-05-03T12:41:54.932Z,11.14
2017-05-03T12:44:20.888Z,10.70
2017-05-03T12:46:46.779Z,11.56
2017-05-03T12:49:12.674Z,10.78
2017-05-03T12:51:39.328Z,10.46
2017-05-03T12:54:05.336Z,10.68
2017-05-03T12:56:32.029Z,11.02
2017-05-03T12:58:57.896Z,11.72
2017-05-03T13:01:24.523Z,10.74
2017-05-03T13:03:51.135Z,12.12
2017-05-03T13:06:17.056Z,9.70
2017-05-03T13:08:43.022Z,10.78
2017-05-03T13:11:08.894Z,10.58
2017-05-03T13:13:34.770Z,10.90
2017-05-03T13:16:00.642Z,11.42
2017-05-03T13:18:27.255Z,12.04
2017-05-03T13:20:53.201Z,12.32
2017-05-03T13:23:19.084Z,10.70
2017-05-03T13:25:44.961Z,10.70
2017-05-03T13:28:11.559Z,10.10
2017-05-03T13:30:37.493Z,11.16
2017-05-03T13:33:03.457Z,10.02
2017-05-03T13:35:29.335Z,9.14
2017-05-03T13:37:55.241Z,9.98
2017-05-03T13:40:21.088Z,10.82
2017-05-03T13:42:47.704Z,11.62
2017-05-03T13:45:13.659Z,11.64
2017-05-03T13:47:39.533Z,11.44
2017-05-03T13:50:05.396Z,11.48
2017-05-03T13:52:31.275Z,11.56
2017-05-03T13:54:57.148Z,12.58
2017-05-03T13:57:23.106Z,12.12
2017-05-03T13:59:48.983Z,11.82
2017-05-03T14:02:14.899Z,10.14
2017-05-03T14:04:41.502Z,11.80
2017-05-03T14:07:07.379Z,11.84
2017-05-03T14:09:33.260Z,11.02
2017-05-03T14:12:00.096Z,11.14
2017-05-03T14:14:26.711Z,10.38
2017-05-03T14:16:52.585Z,12.14
2017-05-03T14:19:18.451Z,11.56
2017-05-03T14:21:44.330Z,12.80
2017-05-03T14:24:10.286Z,10.96
2017-05-03T14:26:36.152Z,10.44
2017-05-03T14:29:02.026Z,11.82
2017-05-03T14:31:27.891Z,12.50
2017-05-03T14:33:53.769Z,12.74
2017-05-03T14:36:19.727Z,12.16
2017-05-03T14:38:45.612Z,12.86
2017-05-03T14:41:11.481Z,12.74
2017-05-03T14:43:37.408Z,11.98
2017-05-03T14:46:03.272Z,12.96
2017-05-03T14:48:29.229Z,11.18
2017-05-03T14:50:55.119Z,11.28
2017-05-03T14:53:21.015Z,11.14
2017-05-03T14:55:46.899Z,11.26
2017-05-03T14:58:12.760Z,11.02
2017-05-03T15:00:38.761Z,11.82
2017-05-03T15:03:04.615Z,11.78
2017-05-03T15:05:30.480Z,11.82
2017-05-03T15:07:56.360Z,11.28
2017-05-03T15:10:23.053Z,11.40
2017-05-03T15:12:49.108Z,10.28
2017-05-03T15:15:14.999Z,11.30
2017-05-03T15:17:40.907Z,11.20
2017-05-03T15:20:06.764Z,10.52
2017-05-03T15:22:32.644Z,10.68
2017-05-03T15:24:58.675Z,10.36
2017-05-03T15:27:24.559Z,11.14
2017-05-03T15:29:51.183Z,10.50
2017-05-03T15:32:17.812Z,9.40
2017-05-03T15:34:43.686Z,9.60
2017-05-03T15:37:09.646Z,10.04
2017-05-03T15:39:35.547Z,10.64
2017-05-03T15:42:01.421Z,9.58
2017-05-03T15:44:27.405Z,10.48
2017-05-03T15:46:53.273Z,9.30
2017-05-03T15:49:19.243Z,8.80
2017-05-03T15:51:45.111Z,9.92
2017-05-03T15:54:11.037Z,9.84
2017-05-03T15:56:36.931Z,9.80
2017-05-03T15:59:03.542Z,9.46
2017-05-03T16:01:29.415Z,9.54
2017-05-03T16:03:55.764Z,10.30
2017-05-03T16:06:21.627Z,9.90
2017-05-03T16:08:48.256Z,10.18
2017-05-03T16:11:14.871Z,8.90
2017-05-03T16:13:40.825Z,10.70
2017-05-03T16:16:07.608Z,10.88
2017-05-03T16:18:33.458Z,10.14
2017-05-03T16:20:59.340Z,9.38
2017-05-03T16:23:25.215Z,9.62
2017-05-03T16:25:51.850Z,9.20
2017-05-03T16:28:17.811Z,9.48
2017-05-03T16:30:43.728Z,9.08
2017-05-03T16:33:09.614Z,9.38
2017-05-03T16:35:36.232Z,8.80
2017-05-03T16:38:02.162Z,8.68
2017-05-03T16:40:28.129Z,9.78
2017-05-03T16:42:53.992Z,9.32
2017-05-03T16:45:19.980Z,10.38
2017-05-03T16:47:45.849Z,9.94
2017-05-03T16:50:12.470Z,10.56
2017-05-03T16:52:38.360Z,8.42
2017-05-03T16:55:04.250Z,10.56
2017-05-03T16:57:30.217Z,10.32
2017-05-03T16:59:56.136Z,9.86
2017-05-03T17:02:22.004Z,10.02
2017-05-03T17:04:48.612Z,9.52
2017-05-03T17:07:14.494Z,7.96
2017-05-03T17:09:40.467Z,10.00
2017-05-03T17:12:07.133Z,9.38
2017-05-03T17:14:33.028Z,10.18
2017-05-03T17:16:58.939Z,8.70
2017-05-03T17:19:24.810Z,9.40
2017-05-03T17:21:50.722Z,8.14
2017-05-03T17:24:16.593Z,9.50
2017-05-03T17:26:42.591Z,9.54
2017-05-03T17:29:08.475Z,9.48
2017-05-03T17:31:42.088Z,8.42
2017-05-03T17:34:08.082Z,9.78
2017-05-03T17:36:34.687Z,8.72
2017-05-03T17:39:00.837Z,9.52
2017-05-03T17:41:27.449Z,9.34
2017-05-03T17:43:53.355Z,9.14
2017-05-03T17:46:19.246Z,8.96
2017-05-03T17:48:45.114Z,9.12
2017-05-03T17:51:10.976Z,9.60
2017-05-03T17:53:36.853Z,9.14
2017-05-03T17:56:02.791Z,6.80
2017-05-03T17:58:29.408Z,8.30
2017-05-03T18:00:55.332Z,9.34
2017-05-03T18:03:21.246Z,8.78
2017-05-03T18:05:47.096Z,9.18
2017-05-03T18:08:13.800Z,9.16
2017-05-03T18:10:39.679Z,9.14
2017-05-03T18:13:05.650Z,7.84
2017-05-03T18:15:31.531Z,7.78
2017-05-03T18:17:57.399Z,8.58
2017-05-03T18:20:24.004Z,8.02
2017-05-03T18:22:49.926Z,8.10
2017-05-03T18:25:15.867Z,10.32
2017-05-03T18:27:41.749Z,9.94
2017-05-03T18:30:07.769Z,10.10
2017-05-03T18:32:33.627Z,10.18
2017-05-03T18:34:59.588Z,9.36
2017-05-03T18:37:25.548Z,10.24
2017-05-03T18:39:51.454Z,9.92
2017-05-03T18:42:17.336Z,9.76
2017-05-03T18:44:43.937Z,10.32
2017-05-03T18:47:09.836Z,11.32
2017-05-03T18:49:35.809Z,10.34
2017-05-03T18:52:02.419Z,10.30
2017-05-03T18:54:28.336Z,10.10
2017-05-03T18:56:54.200Z,11.70
2017-05-03T18:59:20.122Z,11.00
2017-05-03T19:01:46.125Z,9.12
2017-05-03T19:04:12.951Z,10.38
2017-05-03T19:06:38.863Z,11.78
2017-05-03T19:09:04.809Z,10.70
2017-05-03T19:11:31.498Z,10.24
2017-05-03T19:13:57.449Z,11.48
2017-05-03T19:16:23.364Z,10.76
2017-05-03T19:18:49.242Z,10.18
2017-05-03T19:21:15.110Z,10.68
2017-05-03T19:23:41.013Z,10.84
2017-05-03T19:26:06.939Z,11.18
2017-05-03T19:28:32.931Z,9.88
2017-05-03T19:30:58.813Z,9.44
2017-05-03T19:33:24.771Z,11.28
2017-05-03T19:35:50.665Z,9.98
2017-05-03T19:38:16.553Z,9.28
2017-05-03T19:40:43.188Z,8.98
2017-05-03T19:43:09.160Z,10.66
2017-05-03T19:45:35.036Z,13.10
2017-05-03T19:48:01.729Z,10.96
2017-05-03T19:50:27.641Z,10.32
2017-05-03T19:52:53.523Z,8.98
2017-05-03T19:55:19.514Z,8.92
2017-05-03T19:57:45.400Z,8.38
2017-05-03T20:00:11.285Z,9.40
2017-05-03T20:02:37.908Z,6.46
2017-05-03T20:05:04.565Z,6.30
2017-05-03T20:07:31.289Z,5.70
2017-05-03T20:09:57.902Z,6.26
2017-05-03T20:12:23.812Z,5.70
2017-05-03T20:14:49.684Z,5.78
2017-05-03T20:17:15.618Z,5.84
2017-05-03T20:19:41.634Z,5.68
2017-05-03T20:22:07.541Z,5.08
2017-05-03T20:24:34.248Z,6.40
2017-05-03T20:27:00.142Z,5.00
2017-05-03T20:29:26.017Z,6.50
2017-05-03T20:31:52.648Z,5.64
2017-05-03T20:34:19.280Z,6.02
2017-05-03T20:36:46.054Z,6.12
2017-05-03T20:39:11.960Z,5.30
2017-05-03T20:41:37.834Z,5.98
2017-05-03T20:44:03.719Z,5.08
2017-05-03T20:46:29.724Z,6.52
2017-05-03T20:48:56.404Z,5.68
2017-05-03T20:51:22.292Z,6.68
2017-05-03T20:53:48.176Z,4.62
2017-05-03T20:56:14.796Z,5.24
2017-05-03T20:58:40.711Z,6.40
2017-05-03T21:01:06.664Z,5.70
2017-05-03T21:03:33.305Z,4.70
2017-05-03T21:05:59.243Z,5.64
2017-05-03T21:08:25.182Z,5.96
2017-05-03T21:10:51.027Z,6.86
2017-05-03T21:13:16.995Z,5.92
2017-05-03T21:15:42.875Z,7.54
2017-05-03T21:18:08.772Z,6.94
2017-05-03T21:20:34.664Z,5.94
2017-05-03T21:23:00.540Z,7.02
2017-05-03T21:25:27.223Z,7.04
2017-05-03T21:27:53.100Z,6.70
2017-05-03T21:30:19.740Z,6.94
2017-05-03T21:32:46.370Z,6.68
2017-05-03T21:35:12.389Z,7.04
2017-05-03T21:37:38.437Z,6.28
2017-05-03T21:40:05.066Z,7.12
2017-05-03T21:42:31.674Z,6.56
2017-05-03T21:44:57.548Z,7.98
2017-05-03T21:47:23.423Z,6.86
2017-05-03T21:49:49.368Z,7.30
2017-05-03T21:52:15.268Z,6.72
2017-05-03T21:54:41.178Z,7.50
2017-05-03T21:57:07.097Z,8.02
2017-05-03T21:59:32.944Z,7.70
2017-05-03T22:01:59.629Z,6.40
2017-05-03T22:04:25.499Z,8.26
2017-05-03T22:06:52.099Z,6.52
2017-05-03T22:09:17.970Z,8.16
2017-05-03T22:11:43.842Z,6.32
2017-05-03T22:14:09.753Z,7.12
2017-05-03T22:16:35.632Z,6.36
2017-05-03T22:19:01.600Z,6.62
2017-05-03T22:21:27.497Z,6.60
2017-05-03T22:23:53.376Z,6.96
2017-05-03T22:26:19.998Z,6.42
2017-05-03T22:28:46.612Z,6.30
2017-05-03T22:31:12.487Z,8.12
2017-05-03T22:33:38.365Z,7.64
2017-05-03T22:36:04.232Z,6.46
2017-05-03T22:38:30.184Z,7.74
2017-05-03T22:40:56.221Z,8.54
2017-05-03T22:43:22.139Z,6.76
2017-05-03T22:45:48.032Z,8.60
2017-05-03T22:48:13.952Z,7.22
2017-05-03T22:50:39.882Z,6.02
2017-05-03T22:53:05.853Z,4.78
2017-05-03T22:55:32.531Z,4.40
2017-05-03T22:57:58.438Z,4.52
2017-05-03T23:00:25.025Z,4.78
2017-05-03T23:02:50.889Z,4.92
2017-05-03T23:05:16.756Z,4.96
2017-05-03T23:07:42.623Z,3.90
2017-05-03T23:10:08.483Z,5.30
2017-05-03T23:12:34.455Z,4.60
2017-05-03T23:15:00.317Z,4.98
2017-05-03T23:17:26.199Z,5.86
2017-05-03T23:19:52.159Z,4.16
2017-05-03T23:22:18.073Z,5.24
2017-05-03T23:24:44.001Z,4.18
2017-05-03T23:27:09.879Z,4.12
2017-05-03T23:29:35.748Z,4.52
2017-05-03T23:32:01.839Z,5.16
2017-05-03T23:34:27.703Z,6.82
2017-05-03T23:36:53.570Z,4.38
2017-05-03T23:39:19.444Z,4.78
2017-05-03T23:41:45.305Z,5.40
2017-05-03T23:44:11.346Z,4.48
2017-05-03T23:46:37.223Z,6.16
2017-05-03T23:49:03.833Z,5.06
2017-05-03T23:51:29.699Z,4.10
2017-05-03T23:53:55.567Z,5.56
2017-05-03T23:56:21.503Z,6.08
2017-05-03T23:58:48.120Z,4.86
